createdAt,value
2023-05-10T00:06:03.844Z,21.4
2023-05-10T00:26:07.725Z,21.4
2023-05-10T00:36:09.930Z,21.4
2023-05-10T00:46:11.909Z,21.3
2023-05-10T00:56:13.842Z,21.3
2023-05-10T01:16:17.841Z,21.3
2023-05-10T01:26:19.857Z,21.3
2023-05-10T01:36:21.818Z,21.3
2023-05-10T01:46:23.970Z,21.3
2023-05-10T01:56:26.109Z,21.2
2023-05-10T02:06:28.050Z,21.2
2023-05-10T02:16:30.321Z,21.2
2023-05-10T02:26:32.258Z,21.2
2023-05-10T02:36:34.769Z,21.2
2023-05-10T02:56:39.159Z,21.2
2023-05-10T03:06:41.083Z,21.1
2023-05-10T03:16:44.852Z,21.1
2023-05-10T03:26:44.989Z,21.1
2023-05-10T03:36:46.971Z,21.1
2023-05-10T03:46:48.778Z,21.1
2023-05-10T04:06:52.305Z,21.1
2023-05-10T04:16:54.919Z,21.1
2023-05-10T04:26:57.932Z,21.1
2023-05-10T04:36:59.475Z,21.1
2023-05-10T04:47:01.900Z,21.1
2023-05-10T04:57:04.215Z,21.2
2023-05-10T05:07:06.047Z,21.2
2023-05-10T05:17:08.014Z,21.3
2023-05-10T05:27:10.619Z,21.4
2023-05-10T05:37:12.581Z,21
2023-05-10T05:47:14.978Z,20.4
2023-05-10T05:57:17.471Z,20
2023-05-10T06:07:20.023Z,19.5
2023-05-10T06:27:24.519Z,19.8
2023-05-10T06:37:27.029Z,19.8
2023-05-10T06:47:29.638Z,19.6
2023-05-10T06:57:32.282Z,19.3
2023-05-10T07:07:33.786Z,20
2023-05-10T07:17:36.112Z,20.5
2023-05-10T07:37:40.038Z,20.8
2023-05-10T07:47:42.025Z,21.1
2023-05-10T07:57:44.500Z,21.4
2023-05-10T08:47:54.865Z,21.8
2023-05-10T09:28:03.515Z,21
2023-05-10T11:38:39.534Z,22
2023-05-10T13:19:00.686Z,23.6
2023-05-10T13:29:02.933Z,23.6
2023-05-10T13:39:05.121Z,23.6
2023-05-10T13:49:06.835Z,23.7
2023-05-10T13:59:09.002Z,23.8
2023-05-10T14:09:11.605Z,24
2023-05-10T14:19:13.372Z,24.1
2023-05-10T14:29:15.309Z,24.4
2023-05-10T14:39:17.168Z,25
2023-05-10T14:49:19.862Z,25
2023-05-10T15:09:24.743Z,25.6
2023-05-10T15:29:28.445Z,26.6
2023-05-10T15:39:30.583Z,26.6
2023-05-10T15:49:32.529Z,26.8
2023-05-10T15:59:34.256Z,26.6
2023-05-10T16:09:36.178Z,26.4
2023-05-10T16:19:38.349Z,26.6
2023-05-10T16:29:40.812Z,26.4
2023-05-10T16:39:43.052Z,26.3
2023-05-10T16:49:45.084Z,25.9
2023-05-10T16:59:46.942Z,25.5
2023-05-10T17:09:49.232Z,25.2
2023-05-10T17:19:51.272Z,25.1
2023-05-10T17:29:53.244Z,24.8
2023-05-10T17:39:55.880Z,24.7
2023-05-10T17:49:58.083Z,24.4
2023-05-10T18:00:00.632Z,24.1
2023-05-10T18:20:04.061Z,23.5
2023-05-10T18:30:06.352Z,23.3
2023-05-10T18:40:08.794Z,23.2
2023-05-10T18:50:10.792Z,23
2023-05-10T19:00:12.656Z,22.9
2023-05-10T19:10:14.393Z,22.8
2023-05-10T19:20:17.059Z,22.7
2023-05-10T19:30:19.034Z,22.6
2023-05-10T19:40:20.777Z,22.6
2023-05-10T19:50:22.933Z,22.5
2023-05-10T20:00:25.343Z,22.5
2023-05-10T20:10:27.211Z,22.4
2023-05-10T20:20:29.514Z,22.4
2023-05-10T20:30:31.400Z,22.4
2023-05-10T20:40:33.664Z,22.3
2023-05-10T20:50:36.145Z,22.3
2023-05-10T21:00:38.073Z,22.3
2023-05-10T21:10:39.889Z,22.2
2023-05-10T21:20:42.213Z,22.2
2023-05-10T21:30:44.357Z,22.2
2023-05-10T21:40:46.181Z,22.2
2023-05-10T21:50:48.843Z,22.2
2023-05-10T22:10:53.242Z,22.1
2023-05-10T22:20:55.829Z,22.1
2023-05-10T22:30:58.518Z,22.1
2023-05-10T22:41:00.308Z,22.1
2023-05-10T22:51:02.645Z,22.1
2023-05-10T23:01:04.720Z,22.1
2023-05-10T23:11:07.035Z,22
2023-05-10T23:21:09.656Z,22
2023-05-10T23:31:12.087Z,22
2023-05-10T23:41:14.460Z,22
2023-05-10T23:51:16.276Z,22
